Time;durP1;ratioP1;P1;durP2;ratioP2;P2;SDS_P1;SDS_P2;PMS_P1;PMS_P2;Temp;Humidity;BMP_temperature;BMP_pressure;BME280_temperature;BME280_humidity;BME280_pressure;Samples;Min_cycle;Max_cycle;Signal;HPM_P1;HPM_P2
2023/10/03 00:02:16;;;;;;;;;12.00;12.00;;;;;16.22;40.14;100233.75;5114131;27;8965;-74
2023/10/03 00:04:45;;;;;;;;;10.60;10.60;;;;;15.96;40.52;100239.94;5132294;27;8850;-77
2023/10/03 00:07:15;;;;;;;;;11.20;11.00;;;;;15.79;41.56;100242.22;5097985;27;8847;-76
2023/10/03 00:09:44;;;;;;;;;12.00;10.00;;;;;15.46;41.71;100242.34;5133011;27;8854;-74
2023/10/03 00:12:13;;;;;;;;;13.40;12.80;;;;;15.20;42.64;100241.31;5117915;27;8829;-75
2023/10/03 00:14:42;;;;;;;;;10.20;9.00;;;;;15.09;42.15;100246.03;5111652;28;8925;-74
2023/10/03 00:17:12;;;;;;;;;9.60;8.80;;;;;15.24;42.01;100237.69;5075788;28;9020;-75
2023/10/03 00:19:41;;;;;;;;;8.80;8.80;;;;;15.35;41.65;100247.09;5111580;28;8853;-76
2023/10/03 00:22:10;;;;;;;;;10.00;10.00;;;;;15.44;41.51;100242.38;5111038;28;8903;-73
2023/10/03 00:24:40;;;;;;;;;11.00;10.00;;;;;15.50;40.95;100236.03;5062591;28;8937;-74
2023/10/03 00:27:09;;;;;;;;;8.20;7.80;;;;;15.52;40.85;100235.97;5110917;28;8830;-78
2023/10/03 00:29:40;;;;;;;;;10.60;9.20;;;;;15.40;41.14;100235.44;5110122;27;9357;-73
2023/10/03 00:32:10;;;;;;;;;9.80;9.40;;;;;15.54;40.36;100234.16;5111291;28;8849;-75
2023/10/03 00:34:41;;;;;;;;;10.00;10.00;;;;;15.53;40.45;100241.25;5109662;28;8834;-73
2023/10/03 00:37:11;;;;;;;;;11.60;10.60;;;;;15.61;40.02;100226.00;5075030;28;8907;-74
2023/10/03 00:39:41;;;;;;;;;9.40;9.40;;;;;15.58;40.26;100228.69;5109760;28;8875;-73
2023/10/03 00:42:11;;;;;;;;;10.00;10.00;;;;;15.72;39.82;100225.66;5107844;28;8862;-76
2023/10/03 00:44:40;;;;;;;;;10.80;10.80;;;;;15.78;40.15;100224.59;5109335;28;8891;-74
2023/10/03 00:47:10;;;;;;;;;11.00;10.20;;;;;15.84;40.22;100221.75;5109175;28;8949;-74
2023/10/03 00:49:39;;;;;;;;;12.80;12.80;;;;;15.89;39.92;100221.59;5110617;28;8837;-74
2023/10/03 00:52:10;;;;;;;;;11.00;10.60;;;;;15.90;39.28;100220.69;5109120;28;8837;-74
2023/10/03 00:54:40;;;;;;;;;13.60;11.80;;;;;15.93;39.37;100215.28;5092684;28;8849;-76
2023/10/03 00:57:10;;;;;;;;;12.00;10.80;;;;;16.00;39.69;100215.03;5109241;27;9695;-74
2023/10/03 00:59:39;;;;;;;;;12.40;11.40;;;;;16.02;39.60;100212.34;5109624;28;8879;-78
2023/10/03 01:02:08;;;;;;;;;14.00;13.80;;;;;16.06;39.83;100205.13;5091971;28;8864;-74
2023/10/03 01:04:37;;;;;;;;;14.80;12.80;;;;;16.08;39.17;100200.63;5109292;28;8844;-76
2023/10/03 01:07:07;;;;;;;;;13.00;13.00;;;;;16.12;39.20;100207.59;5109402;28;8845;-74
2023/10/03 01:09:36;;;;;;;;;14.60;13.60;;;;;16.14;39.17;100211.06;5074828;28;8837;-75
2023/10/03 01:12:06;;;;;;;;;12.20;11.20;;;;;16.12;38.85;100208.47;5108804;28;8917;-73
2023/10/03 01:14:37;;;;;;;;;9.40;9.40;;;;;16.15;38.63;100211.03;5108152;28;8871;-72
2023/10/03 01:17:07;;;;;;;;;11.80;10.40;;;;;16.16;38.71;100203.91;5110023;28;8860;-74
2023/10/03 01:19:40;;;;;;;;;11.40;11.40;;;;;16.16;38.71;100204.78;5057390;28;8860;-74
2023/10/03 01:22:11;;;;;;;;;12.20;12.20;;;;;16.19;38.46;100195.84;5075421;28;8845;-75
2023/10/03 01:24:41;;;;;;;;;13.20;12.20;;;;;16.17;38.41;100189.72;5087060;28;8848;-74
2023/10/03 01:27:10;;;;;;;;;12.00;11.00;;;;;16.15;38.42;100194.22;5053361;28;8937;-73
2023/10/03 01:29:40;;;;;;;;;11.00;10.40;;;;;16.12;38.52;100189.91;5043678;28;8961;-73
2023/10/03 01:32:09;;;;;;;;;12.00;12.00;;;;;16.13;38.81;100186.31;5087152;28;8938;-76
2023/10/03 01:34:39;;;;;;;;;13.20;13.00;;;;;16.15;39.42;100186.25;5056597;28;8930;-72
2023/10/03 01:37:08;;;;;;;;;14.80;13.60;;;;;16.16;39.67;100180.06;5091201;28;8861;-73
2023/10/03 01:39:37;;;;;;;;;16.40;14.80;;;;;16.13;39.70;100174.84;5088755;28;8873;-74
2023/10/03 01:42:09;;;;;;;;;16.00;14.00;;;;;16.15;40.38;100176.53;5069619;28;8869;-74
2023/10/03 01:44:38;;;;;;;;;18.00;17.60;;;;;16.13;40.98;100177.50;5076774;28;8876;-73
2023/10/03 01:47:07;;;;;;;;;17.80;17.00;;;;;16.10;40.82;100170.53;5066632;28;8942;-74
2023/10/03 01:49:38;;;;;;;;;12.80;12.80;;;;;16.03;40.34;100171.63;5049641;28;8872;-74
2023/10/03 01:52:07;;;;;;;;;11.00;10.60;;;;;16.02;40.29;100168.13;5016340;28;8895;-74
2023/10/03 01:54:38;;;;;;;;;11.80;11.80;;;;;16.03;40.61;100161.88;5067768;28;8856;-76
2023/10/03 01:57:10;;;;;;;;;11.40;11.20;;;;;16.02;39.67;100159.31;5018045;28;8828;-73
2023/10/03 01:59:41;;;;;;;;;14.20;13.00;;;;;15.99;40.43;100162.91;5065068;28;8974;-74
2023/10/03 02:02:10;;;;;;;;;15.60;14.60;;;;;15.95;40.31;100163.09;5013439;28;8886;-78
2023/10/03 02:04:39;;;;;;;;;17.80;16.40;;;;;15.93;41.08;100147.22;5086904;28;8894;-74
2023/10/03 02:07:09;;;;;;;;;16.40;12.00;;;;;15.94;40.99;100156.03;5071044;28;8863;-73
2023/10/03 02:09:38;;;;;;;;;15.80;15.80;;;;;15.94;40.87;100158.69;5087496;28;8852;-74
2023/10/03 02:12:07;;;;;;;;;15.40;13.00;;;;;15.89;41.38;100147.34;5036369;28;8851;-73
2023/10/03 02:14:39;;;;;;;;;12.00;12.00;;;;;15.88;40.46;100153.59;5086772;28;8862;-73
2023/10/03 02:17:08;;;;;;;;;12.20;11.40;;;;;15.85;40.10;100154.56;5056115;28;8886;-75
2023/10/03 02:19:37;;;;;;;;;12.80;12.20;;;;;15.80;39.82;100145.91;5032735;28;8962;-73
2023/10/03 02:22:06;;;;;;;;;11.60;10.00;;;;;15.78;39.74;100153.03;5083720;28;8874;-77
2023/10/03 02:24:36;;;;;;;;;11.40;11.40;;;;;15.80;40.51;100154.72;5091314;28;8870;-74
2023/10/03 02:27:05;;;;;;;;;11.40;11.00;;;;;15.81;39.88;100151.16;5069715;28;9027;-72
2023/10/03 02:29:34;;;;;;;;;15.40;12.60;;;;;15.82;40.07;100146.72;5039116;28;8862;-75
2023/10/03 02:32:08;;;;;;;;;14.00;13.00;;;;;15.84;40.17;100145.72;5089427;28;8886;-73
2023/10/03 02:34:39;;;;;;;;;14.20;13.00;;;;;15.81;39.99;100143.19;5088227;28;9014;-75
2023/10/03 02:37:12;;;;;;;;;13.40;13.00;;;;;15.82;39.86;100144.91;5088355;28;8924;-75
2023/10/03 02:39:43;;;;;;;;;14.00;13.20;;;;;15.74;40.09;100152.25;5086825;28;9014;-74
2023/10/03 02:42:12;;;;;;;;;14.60;13.80;;;;;15.70;40.06;100142.69;5070080;28;8875;-74
2023/10/03 02:44:43;;;;;;;;;14.20;11.60;;;;;15.71;40.14;100144.41;5088374;28;8886;-76
2023/10/03 02:47:14;;;;;;;;;17.00;14.60;;;;;15.76;39.72;100145.13;5086282;28;8872;-74
2023/10/03 02:49:43;;;;;;;;;12.20;11.20;;;;;15.77;39.57;100148.63;5086689;28;9739;-76
2023/10/03 02:52:12;;;;;;;;;16.60;11.20;;;;;15.77;39.37;100138.03;5045677;28;8865;-77
2023/10/03 02:54:41;;;;;;;;;13.40;12.00;;;;;15.79;39.21;100136.19;5071293;28;8855;-77
2023/10/03 02:57:10;;;;;;;;;9.40;8.40;;;;;15.78;39.68;100139.78;5086997;28;10062;-75
2023/10/03 02:59:39;;;;;;;;;14.00;10.40;;;;;15.80;39.20;100137.94;5086754;28;8844;-73
2023/10/03 03:02:13;;;;;;;;;10.80;9.40;;;;;15.81;38.92;100134.34;5087678;28;8863;-74
2023/10/03 03:04:44;;;;;;;;;11.40;10.40;;;;;15.83;39.02;100133.41;5088039;28;8860;-77
2023/10/03 03:07:14;;;;;;;;;12.00;11.00;;;;;15.84;38.99;100136.91;5036607;28;9670;-76
2023/10/03 03:09:44;;;;;;;;;11.20;9.80;;;;;15.86;39.26;100126.28;5090407;28;8835;-74
2023/10/03 03:12:14;;;;;;;;;9.80;9.40;;;;;15.86;38.97;100136.88;5074129;28;8932;-74
2023/10/03 03:14:44;;;;;;;;;11.20;10.00;;;;;15.84;38.93;100129.81;5090797;28;8859;-74
2023/10/03 03:17:16;;;;;;;;;13.60;12.60;;;;;15.83;39.04;100124.56;5088600;28;8828;-73
2023/10/03 03:19:49;;;;;;;;;10.40;10.20;;;;;15.81;39.01;100132.59;5106311;28;8882;-74
2023/10/03 03:22:21;;;;;;;;;11.40;9.20;;;;;15.78;38.92;100131.81;5092126;28;8888;-75
2023/10/03 03:24:51;;;;;;;;;10.60;9.00;;;;;15.79;38.75;100129.13;5090471;28;8928;-75
2023/10/03 03:27:26;;;;;;;;;12.80;10.60;;;;;15.80;38.84;100122.91;5090602;28;8851;-75
2023/10/03 03:30:33;;;;;;;;;10.60;10.60;;;;;15.81;38.80;100124.66;5090347;28;8867;-74
2023/10/03 03:32:59;;;;;;;;;13.00;9.60;;;;;15.80;39.01;100127.34;5100198;28;8840;-74
2023/10/03 03:35:31;;;;;;;;;12.20;11.80;;;;;15.84;38.83;100113.91;5076534;28;8839;-74
2023/10/03 03:38:04;;;;;;;;;12.60;12.00;;;;;15.83;38.75;100114.84;5078657;28;8864;-75
2023/10/03 03:40:34;;;;;;;;;9.60;9.00;;;;;15.84;38.58;100110.41;5094898;28;8970;-73
2023/10/03 03:43:05;;;;;;;;;13.40;12.40;;;;;15.80;38.39;100103.47;5073289;28;8882;-78
2023/10/03 03:45:34;;;;;;;;;9.00;7.80;;;;;15.75;38.26;100108.06;5091283;28;9589;-74
2023/10/03 03:48:06;;;;;;;;;13.20;11.40;;;;;15.59;38.60;100102.38;5091836;28;8839;-77
2023/10/03 03:50:37;;;;;;;;;25.80;23.40;;;;;15.60;40.81;100104.13;5055483;28;8836;-75
2023/10/03 03:53:07;;;;;;;;;4.80;4.80;;;;;15.57;39.23;100102.44;5125135;27;8871;-78
2023/10/03 03:55:37;;;;;;;;;10.60;9.00;;;;;15.46;39.06;100104.56;5131968;27;8872;-74
2023/10/03 03:58:11;;;;;;;;;10.80;9.40;;;;;15.30;39.49;100108.59;5132048;27;8865;-77
2023/10/03 04:00:47;;;;;;;;;10.00;9.40;;;;;15.32;39.46;100110.31;5131923;27;8841;-74
2023/10/03 04:03:18;;;;;;;;;9.00;9.00;;;;;15.37;39.31;100108.34;5131624;27;8845;-75
2023/10/03 04:05:49;;;;;;;;;11.20;9.80;;;;;15.29;39.26;100105.09;5095163;27;8952;-74
2023/10/03 04:08:18;;;;;;;;;10.20;10.20;;;;;15.37;38.92;100104.84;5132209;27;8818;-75
2023/10/03 04:10:47;;;;;;;;;10.00;9.40;;;;;15.46;39.31;100099.25;5132018;27;8869;-74
2023/10/03 04:13:17;;;;;;;;;13.80;12.80;;;;;15.46;39.54;100101.91;5146244;27;8929;-80
2023/10/03 04:15:46;;;;;;;;;10.40;10.00;;;;;15.44;39.25;100107.25;5122314;27;8952;-82
2023/10/03 04:18:15;;;;;;;;;11.20;10.20;;;;;15.53;39.59;100107.84;5115414;27;8845;-78
2023/10/03 04:20:46;;;;;;;;;11.80;11.00;;;;;15.58;39.57;100101.50;5130866;27;8844;-78
2023/10/03 04:23:17;;;;;;;;;10.00;9.00;;;;;15.61;38.95;100105.88;5132372;27;8880;-79
2023/10/03 04:25:46;;;;;;;;;9.20;9.20;;;;;15.63;38.81;100104.03;5132849;27;8854;-79
2023/10/03 04:28:16;;;;;;;;;11.20;10.80;;;;;15.66;39.01;100111.88;5114349;27;8822;-79
2023/10/03 04:30:45;;;;;;;;;12.80;12.80;;;;;15.64;40.00;100109.31;5080264;27;8861;-78
2023/10/03 04:33:20;;;;;;;;;17.00;16.20;;;;;15.66;39.75;100108.38;5132579;27;8952;-78
2023/10/03 04:35:50;;;;;;;;;11.60;10.40;;;;;15.66;39.38;100113.66;5114302;27;8857;-80
2023/10/03 04:38:20;;;;;;;;;18.00;11.60;;;;;15.58;39.49;100114.75;5120591;27;8859;-79
2023/10/03 04:40:49;;;;;;;;;14.60;14.00;;;;;15.70;39.98;100110.88;5111671;28;8928;-79
2023/10/03 04:43:18;;;;;;;;;17.80;16.60;;;;;15.76;40.42;100115.97;5075421;28;8886;-81
2023/10/03 04:45:47;;;;;;;;;18.40;17.40;;;;;15.78;41.00;100108.84;5093242;28;8839;-79
2023/10/03 04:48:16;;;;;;;;;23.00;22.40;;;;;15.81;40.99;100115.81;5129449;27;8865;-79
2023/10/03 04:50:45;;;;;;;;;15.40;14.20;;;;;15.77;40.43;100111.53;5113243;27;9703;-81
2023/10/03 04:53:15;;;;;;;;;12.80;12.40;;;;;15.76;39.98;100115.97;5112803;27;8860;-80
2023/10/03 04:55:48;;;;;;;;;18.40;18.40;;;;;15.81;40.56;100107.84;5131430;27;8961;-81
2023/10/03 04:58:18;;;;;;;;;12.20;11.80;;;;;15.76;40.11;100110.66;5131680;27;8856;-80
2023/10/03 05:00:46;;;;;;;;;20.80;19.20;;;;;15.81;41.04;100108.75;5086883;28;8871;-80
2023/10/03 05:03:18;;;;;;;;;20.00;19.40;;;;;15.81;40.88;100106.09;5050515;28;8864;-80
2023/10/03 05:05:48;;;;;;;;;28.50;27.00;;;;;15.82;40.96;100107.81;5056294;28;9561;-79
2023/10/03 05:08:19;;;;;;;;;23.75;22.75;;;;;15.83;40.79;100111.31;5023049;28;8832;-82
2023/10/03 05:10:49;;;;;;;;;22.60;20.00;;;;;15.83;40.77;100121.91;5080395;28;8853;-81
2023/10/03 05:13:19;;;;;;;;;21.20;19.60;;;;;15.82;40.87;100121.06;5051834;28;9023;-79
2023/10/03 05:15:48;;;;;;;;;17.40;17.40;;;;;15.80;40.92;100119.38;5036262;28;8869;-80
2023/10/03 05:18:17;;;;;;;;;18.80;18.40;;;;;15.74;41.21;100123.09;5069875;28;8851;-79
2023/10/03 05:20:46;;;;;;;;;25.40;24.40;;;;;15.75;41.29;100123.97;5088557;28;8855;-80
2023/10/03 05:23:15;;;;;;;;;23.80;23.20;;;;;15.66;41.79;100127.78;5047431;28;8844;-80
2023/10/03 05:25:44;;;;;;;;;28.00;26.75;;;;;15.71;41.82;100133.78;5015414;28;8851;-81
2023/10/03 05:28:16;;;;;;;;;27.25;26.00;;;;;15.79;41.97;100129.13;5001718;28;8838;-82
2023/10/03 05:30:45;;;;;;;;;27.00;23.75;;;;;15.83;41.81;100127.22;5039661;28;8933;-79
2023/10/03 05:33:20;;;;;;;;;31.25;30.25;;;;;15.91;41.76;100134.94;5059911;28;8927;-85
2023/10/03 05:35:49;;;;;;;;;34.50;31.00;;;;;15.92;41.90;100139.31;5021359;28;8874;-81
2023/10/03 05:38:19;;;;;;;;;20.00;18.40;;;;;15.94;41.46;100140.97;5074378;28;8867;-80
2023/10/03 05:40:48;;;;;;;;;22.40;20.60;;;;;15.95;41.15;100132.13;5067202;28;8893;-83
2023/10/03 05:43:18;;;;;;;;;31.00;29.25;;;;;16.02;42.10;100144.25;5067065;28;9019;-80
2023/10/03 05:45:49;;;;;;;;;34.00;31.50;;;;;16.09;42.28;100139.59;5051050;28;8858;-79
2023/10/03 05:48:21;;;;;;;;;35.50;31.50;;;;;16.23;42.41;100141.78;5048016;28;8850;-79
2023/10/03 05:50:51;;;;;;;;;35.25;32.75;;;;;16.33;42.27;100143.19;5034454;28;8870;-80
2023/10/03 05:53:20;;;;;;;;;34.50;30.00;;;;;16.43;41.99;100149.88;5066419;28;8959;-81
2023/10/03 05:55:49;;;;;;;;;39.50;32.75;;;;;16.52;41.75;100140.78;5017105;28;9617;-82
2023/10/03 05:58:19;;;;;;;;;20.50;19.00;;;;;16.63;41.29;100152.81;5066493;27;8900;-81
2023/10/03 06:00:49;;;;;;;;;31.50;30.00;;;;;16.76;41.17;100146.97;5131743;27;8970;-80
2023/10/03 06:03:18;;;;;;;;;27.00;25.50;;;;;16.85;40.77;100151.06;5149999;27;8961;-83
2023/10/03 06:05:47;;;;;;;;;40.25;35.00;;;;;16.94;40.83;100147.22;5119956;27;8841;-79
2023/10/03 06:08:17;;;;;;;;;24.50;20.50;;;;;17.04;40.99;100153.03;5148653;27;8852;-82
2023/10/03 06:10:46;;;;;;;;;35.75;30.75;;;;;17.11;40.87;100159.84;5150355;27;8886;-81
2023/10/03 06:13:15;;;;;;;;;67.25;53.50;;;;;17.15;41.44;100149.03;5149349;27;8819;-80
2023/10/03 06:15:46;;;;;;;;;45.75;38.25;;;;;17.23;41.50;100151.41;5111590;27;9558;-81
2023/10/03 06:18:15;;;;;;;;;32.25;30.50;;;;;17.28;40.97;100140.63;5125464;27;8838;-80
2023/10/03 06:20:45;;;;;;;;;38.25;34.00;;;;;17.39;40.84;100149.03;5111001;27;8853;-79
2023/10/03 06:23:14;;;;;;;;;35.50;32.75;;;;;17.53;40.82;100146.72;5094135;27;8844;-79
2023/10/03 06:25:43;;;;;;;;;27.50;26.75;;;;;17.69;40.33;100143.41;5111207;27;8964;-79
2023/10/03 06:28:12;;;;;;;;;16.00;15.40;;;;;17.75;39.12;100138.69;5043477;27;8926;-80
2023/10/03 06:30:41;;;;;;;;;15.00;14.40;;;;;17.84;38.82;100139.28;5052863;27;8859;-80
2023/10/03 06:33:12;;;;;;;;;12.80;12.40;;;;;18.00;38.60;100144.78;5114515;27;8872;-77
2023/10/03 06:35:41;;;;;;;;;13.60;13.00;;;;;18.12;38.32;100145.19;5110684;27;8892;-77
2023/10/03 06:38:11;;;;;;;;;11.00;10.20;;;;;18.15;37.90;100134.38;5129806;27;8845;-80
2023/10/03 06:40:40;;;;;;;;;12.00;12.00;;;;;18.22;37.68;100148.31;5125509;27;8974;-80
2023/10/03 06:43:10;;;;;;;;;20.00;19.20;;;;;18.43;37.48;100148.31;5115684;27;8818;-81
2023/10/03 06:45:40;;;;;;;;;30.25;26.25;;;;;18.46;36.96;100154.34;5077509;27;8869;-79
2023/10/03 06:48:10;;;;;;;;;14.00;12.80;;;;;18.59;36.85;100152.03;5123852;27;8933;-79
2023/10/03 06:50:42;;;;;;;;;13.20;11.60;;;;;18.71;36.38;100150.59;5070487;27;8869;-78
2023/10/03 06:53:13;;;;;;;;;11.00;9.40;;;;;18.81;36.48;100153.75;5110997;27;8928;-74
2023/10/03 06:55:43;;;;;;;;;9.00;9.00;;;;;18.92;36.16;100149.63;5129040;27;8848;-76
2023/10/03 06:58:12;;;;;;;;;11.40;10.20;;;;;19.02;35.95;100152.72;5127501;27;9591;-74
2023/10/03 07:00:41;;;;;;;;;9.40;8.80;;;;;19.13;36.07;100154.91;5128780;27;8838;-74
2023/10/03 07:03:10;;;;;;;;;11.00;10.00;;;;;19.11;36.07;100152.31;5129963;27;8830;-73
2023/10/03 07:05:40;;;;;;;;;10.60;9.80;;;;;19.24;35.91;100149.09;5128751;27;8871;-73
2023/10/03 07:08:12;;;;;;;;;11.20;10.40;;;;;19.21;36.16;100155.41;5110657;27;8818;-73
2023/10/03 07:10:41;;;;;;;;;10.20;9.00;;;;;19.31;36.04;100151.38;5128863;27;8865;-73
2023/10/03 07:13:12;;;;;;;;;10.40;10.40;;;;;19.43;35.72;100157.91;5111178;27;8921;-73
2023/10/03 07:15:42;;;;;;;;;13.20;11.60;;;;;19.48;35.60;100155.00;5129619;27;8833;-72
2023/10/03 07:18:11;;;;;;;;;10.60;10.60;;;;;19.60;35.63;100153.59;5129460;27;8853;-75
2023/10/03 07:20:41;;;;;;;;;9.80;9.40;;;;;19.69;35.60;100150.50;5111128;27;8864;-74
2023/10/03 07:23:11;;;;;;;;;12.20;12.20;;;;;19.74;35.52;100145.78;5129440;27;9591;-77
2023/10/03 07:25:39;;;;;;;;;10.00;10.00;;;;;19.69;35.68;100147.81;5093828;27;9004;-73
2023/10/03 07:28:08;;;;;;;;;10.20;8.80;;;;;19.61;35.80;100152.66;5129336;27;8850;-74
2023/10/03 07:30:38;;;;;;;;;11.00;9.80;;;;;19.64;36.26;100147.19;5129337;27;8861;-73
2023/10/03 07:33:07;;;;;;;;;12.00;9.60;;;;;19.69;36.53;100150.50;5129368;27;9601;-73
2023/10/03 07:35:37;;;;;;;;;13.20;13.00;;;;;19.78;36.53;100146.47;5110531;27;8849;-76
2023/10/03 07:38:11;;;;;;;;;17.00;13.80;;;;;19.82;36.43;100150.72;5110461;27;8957;-76
2023/10/03 07:40:40;;;;;;;;;11.40;11.20;;;;;19.88;36.69;100153.09;5129134;27;8946;-78
2023/10/03 07:43:10;;;;;;;;;13.60;13.60;;;;;19.84;36.56;100143.50;5129152;27;8849;-73
2023/10/03 07:45:40;;;;;;;;;15.60;14.00;;;;;19.79;36.37;100150.91;5129055;27;8992;-74
2023/10/03 07:48:10;;;;;;;;;14.80;14.80;;;;;19.84;36.73;100155.06;5128886;27;8830;-74
2023/10/03 07:50:43;;;;;;;;;15.80;14.40;;;;;19.85;37.16;100154.09;5128539;27;8853;-73
2023/10/03 07:53:14;;;;;;;;;19.00;17.80;;;;;20.04;36.89;100156.72;5128713;27;8845;-71
2023/10/03 07:55:42;;;;;;;;;16.00;15.00;;;;;19.93;37.51;100153.72;5130510;27;8850;-74
2023/10/03 07:58:14;;;;;;;;;20.20;16.40;;;;;19.98;37.56;100145.50;5114085;27;8888;-72
2023/10/03 08:00:44;;;;;;;;;14.00;14.00;;;;;19.94;38.10;100147.44;5132370;27;9082;-74
2023/10/03 08:03:13;;;;;;;;;11.80;11.60;;;;;20.00;38.21;100136.47;5132698;27;8836;-75
2023/10/03 08:05:43;;;;;;;;;19.20;18.40;;;;;19.96;38.55;100145.56;5132624;27;8914;-73
2023/10/03 08:08:12;;;;;;;;;20.20;19.60;;;;;20.02;38.65;100139.06;5113865;27;8854;-73
2023/10/03 08:10:46;;;;;;;;;22.40;21.60;;;;;20.08;38.50;100139.63;5132631;27;8845;-74
2023/10/03 08:13:17;;;;;;;;;19.80;18.80;;;;;20.15;38.18;100134.81;5113762;27;8837;-73
2023/10/03 08:15:46;;;;;;;;;19.60;17.20;;;;;20.27;38.49;100133.34;5095437;27;8925;-75
2023/10/03 08:18:17;;;;;;;;;19.20;16.80;;;;;20.25;38.46;100132.56;5095939;27;9563;-75
2023/10/03 08:20:53;;;;;;;;;19.00;17.20;;;;;20.31;38.29;100134.03;5132215;27;8864;-75
2023/10/03 08:23:23;;;;;;;;;18.40;15.80;;;;;20.31;38.83;100134.03;5131828;27;8856;-74
2023/10/03 08:26:01;;;;;;;;;16.60;16.00;;;;;20.39;38.40;100131.84;5113074;27;8862;-72
2023/10/03 08:28:31;;;;;;;;;17.60;16.00;;;;;20.38;38.62;100128.31;5113562;27;8902;-74
2023/10/03 08:31:06;;;;;;;;;20.00;19.40;;;;;20.45;38.64;100139.53;5131724;27;9026;-76
2023/10/03 08:33:37;;;;;;;;;20.20;19.20;;;;;20.41;39.24;100136.16;5131654;27;8837;-75
2023/10/03 08:36:14;;;;;;;;;18.80;18.40;;;;;20.42;38.77;100140.53;5131433;27;8853;-75
2023/10/03 08:38:44;;;;;;;;;20.80;19.80;;;;;20.43;38.93;100133.41;5078364;27;8849;-74
2023/10/03 08:41:26;;;;;;;;;24.80;21.40;;;;;20.47;38.75;100124.28;5131696;27;8842;-74
2023/10/03 08:43:57;;;;;;;;;21.60;20.60;;;;;20.38;38.81;100127.44;5113079;27;8825;-76
2023/10/03 08:46:36;;;;;;;;;19.20;17.20;;;;;20.53;39.04;100134.66;5113015;27;9647;-73
2023/10/03 08:49:10;;;;;;;;;21.00;18.00;;;;;20.55;38.76;100134.56;5150058;27;8827;-73
2023/10/03 08:51:40;;;;;;;;;17.60;17.60;;;;;20.67;39.18;100123.22;5099926;27;8840;-77
2023/10/03 08:54:10;;;;;;;;;17.60;15.60;;;;;20.66;38.96;100122.34;5152206;27;8831;-73
2023/10/03 08:56:41;;;;;;;;;16.60;15.60;;;;;20.63;38.58;100119.88;5151737;27;8851;-75
2023/10/03 08:59:15;;;;;;;;;22.40;20.20;;;;;20.59;38.36;100122.78;5136659;27;8826;-73
2023/10/03 09:01:46;;;;;;;;;22.40;16.20;;;;;20.70;38.47;100119.53;5114035;27;8866;-72
2023/10/03 09:04:17;;;;;;;;;18.60;16.80;;;;;20.72;38.11;100117.63;5110797;27;9589;-72
2023/10/03 09:06:47;;;;;;;;;18.60;17.20;;;;;20.75;37.64;100120.16;5130773;27;8903;-73
2023/10/03 09:09:16;;;;;;;;;18.40;17.80;;;;;20.79;37.75;100111.03;5130891;27;8850;-72
2023/10/03 09:11:51;;;;;;;;;16.20;15.40;;;;;20.94;37.35;100112.03;5078067;27;8867;-75
2023/10/03 09:14:20;;;;;;;;;23.00;17.20;;;;;20.97;37.36;100117.19;5130850;27;9672;-73
2023/10/03 09:16:52;;;;;;;;;14.00;14.00;;;;;20.90;36.97;100115.75;5130757;27;8821;-73
2023/10/03 09:19:41;;;;;;;;;18.60;18.20;;;;;21.15;36.72;100104.59;5130596;27;8837;-74
2023/10/03 09:22:10;;;;;;;;;17.60;16.80;;;;;20.94;37.11;100109.34;5130538;27;8922;-73
2023/10/03 09:24:43;;;;;;;;;18.80;17.20;;;;;20.99;37.26;100102.81;5130409;27;9582;-74
2023/10/03 09:27:17;;;;;;;;;18.00;17.00;;;;;21.08;37.33;100104.06;5130015;27;8996;-76
2023/10/03 09:29:49;;;;;;;;;19.80;17.40;;;;;21.24;37.05;100104.09;5131113;27;8860;-75
2023/10/03 09:32:23;;;;;;;;;17.80;16.40;;;;;21.33;37.48;100097.34;5130073;27;8895;-74
2023/10/03 09:34:58;;;;;;;;;18.60;17.40;;;;;21.34;37.44;100107.97;5128776;27;8838;-74
2023/10/03 09:37:28;;;;;;;;;20.40;19.20;;;;;21.42;36.71;100105.69;5111780;27;8954;-74
2023/10/03 09:39:59;;;;;;;;;21.20;19.40;;;;;21.44;36.72;100095.75;5130076;27;8926;-75
2023/10/03 09:42:32;;;;;;;;;21.40;21.40;;;;;21.53;36.89;100104.22;5129926;27;8933;-74
2023/10/03 09:45:06;;;;;;;;;17.80;17.60;;;;;21.48;36.16;100099.13;5130043;27;8833;-73
2023/10/03 09:47:36;;;;;;;;;29.80;26.60;;;;;21.54;36.72;100106.81;5131622;27;9037;-75
2023/10/03 09:50:09;;;;;;;;;19.80;19.40;;;;;21.67;36.65;100098.94;5132824;27;8926;-78
2023/10/03 09:52:39;;;;;;;;;21.40;19.20;;;;;21.72;35.32;100096.88;5076994;27;8873;-73
2023/10/03 09:55:21;;;;;;;;;19.60;17.80;;;;;21.78;35.49;100091.16;5093820;27;9613;-74
2023/10/03 09:57:54;;;;;;;;;17.20;16.60;;;;;21.86;35.11;100082.66;5129809;27;8842;-72
2023/10/03 10:00:38;;;;;;;;;17.00;17.00;;;;;21.81;34.44;100080.28;5130067;27;9409;-73
2023/10/03 10:03:11;;;;;;;;;18.80;16.60;;;;;21.78;33.68;100080.44;5130085;27;8841;-75
2023/10/03 10:05:49;;;;;;;;;21.60;20.40;;;;;21.98;34.51;100075.75;5065837;28;8875;-78
2023/10/03 10:08:29;;;;;;;;;16.60;15.60;;;;;22.13;34.71;100082.84;5049527;28;8852;-76
2023/10/03 10:11:07;;;;;;;;;15.60;15.60;;;;;22.11;33.55;100076.72;5044830;28;9591;-77
2023/10/03 10:13:44;;;;;;;;;15.40;15.20;;;;;22.14;32.97;100075.66;5086877;28;10240;-75
2023/10/03 10:16:20;;;;;;;;;16.80;15.60;;;;;22.22;33.80;100068.88;5075119;28;8840;-75
2023/10/03 10:18:58;;;;;;;;;14.60;14.60;;;;;22.37;33.30;100063.56;5064807;28;8860;-75
2023/10/03 10:21:32;;;;;;;;;14.40;13.80;;;;;22.30;32.54;100068.44;5065672;28;8864;-75
2023/10/03 10:24:28;;;;;;;;;20.40;18.60;;;;;22.48;33.38;100061.06;5065652;28;9602;-75
2023/10/03 10:26:59;;;;;;;;;19.80;18.00;;;;;22.37;33.17;100060.88;5064856;28;9008;-77
2023/10/03 10:29:34;;;;;;;;;18.60;17.40;;;;;22.31;32.28;100056.75;5066110;28;8873;-76
2023/10/03 10:32:18;;;;;;;;;17.40;15.60;;;;;22.57;32.30;100048.94;5049131;28;8836;-78
2023/10/03 10:34:47;;;;;;;;;17.60;16.40;;;;;22.61;32.76;100053.13;5065806;28;8868;-76
2023/10/03 10:37:18;;;;;;;;;20.20;18.20;;;;;22.74;32.96;100043.34;5109206;27;8845;-77
2023/10/03 10:43:04;;;;;;;;;19.20;17.80;;;;;23.00;33.10;100032.81;5065890;28;8974;-76
2023/10/03 10:45:41;;;;;;;;;17.40;16.20;;;;;23.02;32.49;100030.88;5066634;28;9001;-76
2023/10/03 10:48:11;;;;;;;;;17.40;15.40;;;;;23.12;32.61;100025.75;5003373;28;8840;-76
2023/10/03 10:51:10;;;;;;;;;15.60;14.80;;;;;23.26;32.66;100020.34;5049902;28;8875;-77
2023/10/03 10:53:43;;;;;;;;;17.00;16.20;;;;;23.31;33.03;100017.34;5065727;28;9014;-77
2023/10/03 10:56:13;;;;;;;;;18.80;16.80;;;;;23.36;32.41;100015.22;5046088;28;8908;-77
2023/10/03 10:58:47;;;;;;;;;16.00;15.60;;;;;23.44;30.96;100023.63;5078804;28;9614;-78
2023/10/03 11:01:18;;;;;;;;;19.80;17.40;;;;;23.57;31.63;100011.13;5072604;28;8842;-75
2023/10/03 11:03:47;;;;;;;;;18.00;17.40;;;;;23.63;32.47;100012.53;5056905;28;8875;-79
2023/10/03 11:06:17;;;;;;;;;15.80;15.80;;;;;23.83;31.82;100003.13;5065523;28;8986;-78
2023/10/03 11:08:50;;;;;;;;;21.80;18.20;;;;;23.96;31.67;100000.41;5063193;28;8846;-77
2023/10/03 11:11:19;;;;;;;;;19.40;17.80;;;;;23.90;31.10;99988.31;5065727;28;8860;-77
2023/10/03 11:13:53;;;;;;;;;15.20;14.60;;;;;24.07;31.41;99991.59;5048815;28;8832;-78
2023/10/03 11:16:25;;;;;;;;;14.20;13.80;;;;;24.20;30.87;99991.63;5065895;28;9649;-75
2023/10/03 11:18:56;;;;;;;;;15.20;12.40;;;;;24.27;29.95;99996.47;5080694;27;9012;-77
2023/10/03 11:21:29;;;;;;;;;14.40;13.60;;;;;24.41;29.49;99984.72;5110713;27;8818;-77
2023/10/03 11:24:15;;;;;;;;;13.20;13.20;;;;;24.73;29.78;99985.06;5094762;27;8838;-78
2023/10/03 11:26:46;;;;;;;;;18.80;18.80;;;;;24.74;30.06;99983.28;5128317;27;8857;-77
2023/10/03 11:29:17;;;;;;;;;17.40;16.40;;;;;24.79;29.21;99978.38;5127867;27;8855;-78
2023/10/03 11:31:48;;;;;;;;;15.20;15.20;;;;;24.86;29.48;99989.56;5123692;27;8944;-77
2023/10/03 11:34:31;;;;;;;;;20.80;17.80;;;;;25.10;29.08;99974.28;5133651;27;8858;-76
2023/10/03 11:37:02;;;;;;;;;16.60;15.80;;;;;24.88;29.70;99980.41;5134724;27;8849;-77
2023/10/03 11:39:37;;;;;;;;;17.80;16.80;;;;;25.24;29.70;99972.38;5134491;27;8844;-77
2023/10/03 11:42:23;;;;;;;;;15.40;14.80;;;;;25.32;29.57;99967.28;5110384;28;8822;-77